Time;durP1;ratioP1;P1;durP2;ratioP2;P2;SDS_P1;SDS_P2;PMS_P1;PMS_P2;Temp;Humidity;BMP_temperature;BMP_pressure;BME280_temperature;BME280_humidity;BME280_pressure;Samples;Min_cycle;Max_cycle;Signal;HPM_P1;HPM_P2
2021/06/16 00:01:48;;;;;;;1.02;0.65;;;23.80;51.40;;;;;;6264048;28;20060;-70
2021/06/16 00:04:49;;;;;;;0.68;0.60;;;23.80;51.50;;;;;;6263899;28;20423;-70
2021/06/16 00:07:49;;;;;;;1.00;0.70;;;23.80;51.40;;;;;;6263961;28;20029;-69
2021/06/16 00:10:50;;;;;;;1.02;0.60;;;23.80;51.50;;;;;;6244172;28;20037;-70
2021/06/16 00:13:51;;;;;;;0.90;0.75;;;23.80;51.50;;;;;;6256530;28;20135;-70
2021/06/16 00:16:52;;;;;;;1.17;0.63;;;23.80;51.40;;;;;;6264342;28;20041;-70
2021/06/16 00:19:52;;;;;;;0.63;0.50;;;23.80;51.40;;;;;;6264282;28;20341;-70
2021/06/16 00:22:54;;;;;;;0.40;0.40;;;23.80;51.40;;;;;;6263586;28;20029;-70
2021/06/16 00:25:54;;;;;;;1.20;0.60;;;23.80;51.40;;;;;;6263935;28;20257;-70
2021/06/16 00:28:55;;;;;;;0.60;0.55;;;23.80;51.40;;;;;;6263907;28;20036;-70
2021/06/16 00:31:56;;;;;;;0.60;0.60;;;23.80;51.40;;;;;;6263391;28;20033;-70
2021/06/16 00:34:56;;;;;;;1.10;0.60;;;23.80;51.40;;;;;;6263539;28;20103;-69
2021/06/16 00:37:58;;;;;;;1.30;0.60;;;23.80;51.50;;;;;;6263562;28;20025;-70
2021/06/16 00:40:59;;;;;;;0.90;0.73;;;23.80;51.50;;;;;;6259166;28;20061;-70
2021/06/16 00:44:00;;;;;;;1.25;0.70;;;23.80;51.50;;;;;;6263374;28;20036;-70
2021/06/16 00:47:01;;;;;;;1.40;0.70;;;23.70;51.40;;;;;;6264324;28;20249;-70
2021/06/16 00:50:04;;;;;;;1.13;0.80;;;23.70;51.40;;;;;;6263227;28;20036;-70
2021/06/16 00:53:06;;;;;;;0.88;0.70;;;23.80;51.50;;;;;;6259016;28;20033;-70
2021/06/16 00:56:07;;;;;;;0.77;0.70;;;23.70;51.40;;;;;;6268910;28;20111;-70
2021/06/16 00:59:08;;;;;;;0.93;0.60;;;23.70;51.40;;;;;;6268100;28;20052;-69
2021/06/16 01:02:10;;;;;;;0.80;0.70;;;23.70;51.40;;;;;;6264559;28;20030;-70
2021/06/16 01:05:12;;;;;;;0.70;0.60;;;23.70;51.50;;;;;;6264219;28;20048;-70
2021/06/16 01:08:18;;;;;;;0.93;0.50;;;23.70;51.50;;;;;;6268042;28;20047;-70
2021/06/16 01:11:20;;;;;;;0.77;0.60;;;23.70;51.50;;;;;;6267966;28;20068;-70
2021/06/16 01:14:36;;;;;;;1.02;0.80;;;23.70;51.50;;;;;;6267710;28;20128;-69
2021/06/16 01:17:48;;;;;;;0.95;0.57;;;23.70;51.50;;;;;;6268092;28;20075;-69
2021/06/16 01:20:51;;;;;;;0.75;0.60;;;23.80;51.60;;;;;;6267271;28;20020;-70
2021/06/16 01:23:52;;;;;;;0.73;0.65;;;23.70;51.50;;;;;;6256030;28;20033;-70
2021/06/16 01:26:54;;;;;;;0.77;0.50;;;23.70;51.50;;;;;;6242885;28;20087;-70
2021/06/16 01:29:58;;;;;;;1.08;0.70;;;23.70;51.50;;;;;;6253663;28;20056;-69
2021/06/16 01:33:01;;;;;;;0.70;0.52;;;23.70;51.50;;;;;;6268040;28;20516;-69
2021/06/16 01:36:02;;;;;;;1.38;0.75;;;23.70;51.60;;;;;;6267407;28;20388;-70
2021/06/16 01:39:07;;;;;;;0.60;0.60;;;23.70;51.60;;;;;;6267126;28;20053;-69
2021/06/16 01:42:12;;;;;;;0.88;0.60;;;23.70;51.60;;;;;;6267362;28;20032;-69
2021/06/16 01:45:15;;;;;;;0.95;0.52;;;23.70;51.60;;;;;;6267321;28;20079;-69
2021/06/16 01:48:18;;;;;;;1.25;0.70;;;23.70;51.60;;;;;;6267758;28;20116;-70
2021/06/16 01:51:21;;;;;;;1.95;0.60;;;23.70;51.60;;;;;;6267238;28;20095;-70
2021/06/16 01:54:24;;;;;;;0.75;0.52;;;23.70;51.60;;;;;;6235661;28;20057;-70
2021/06/16 01:57:25;;;;;;;1.85;0.57;;;23.70;51.60;;;;;;6266711;28;20041;-70
2021/06/16 02:00:26;;;;;;;1.25;0.57;;;23.70;51.50;;;;;;6267011;28;20033;-70
2021/06/16 02:03:28;;;;;;;0.75;0.57;;;23.70;51.60;;;;;;6259221;28;20076;-70
2021/06/16 02:06:34;;;;;;;1.80;0.60;;;23.70;51.60;;;;;;6259921;28;20037;-70
2021/06/16 02:09:37;;;;;;;1.48;0.50;;;23.70;51.60;;;;;;6266332;28;20053;-69
2021/06/16 02:12:40;;;;;;;0.70;0.65;;;23.70;51.60;;;;;;6266468;28;20382;-70
2021/06/16 02:15:52;;;;;;;0.45;0.45;;;23.70;51.60;;;;;;6266233;28;20017;-69
2021/06/16 02:18:58;;;;;;;0.60;0.45;;;23.70;51.60;;;;;;6266116;28;20021;-70
2021/06/16 02:22:01;;;;;;;0.98;0.60;;;23.70;51.60;;;;;;6265809;28;20247;-69
2021/06/16 02:25:04;;;;;;;1.10;0.70;;;23.70;51.60;;;;;;6266005;28;20044;-69
2021/06/16 02:28:04;;;;;;;0.32;0.32;;;23.70;51.60;;;;;;6266428;28;20299;-69
2021/06/16 02:31:05;;;;;;;0.57;0.50;;;23.70;51.60;;;;;;6265504;28;20523;-70
2021/06/16 02:34:07;;;;;;;0.40;0.40;;;23.70;51.60;;;;;;6265873;28;20024;-70
2021/06/16 02:37:11;;;;;;;2.75;0.50;;;23.70;51.70;;;;;;6265890;28;20021;-70
2021/06/16 02:40:14;;;;;;;0.63;0.53;;;23.70;51.60;;;;;;6265669;28;20025;-70
2021/06/16 02:43:16;;;;;;;0.50;0.50;;;23.70;51.60;;;;;;6265275;28;20037;-70
2021/06/16 02:46:18;;;;;;;0.63;0.50;;;23.70;51.70;;;;;;6265562;28;20056;-69
2021/06/16 02:49:28;;;;;;;0.50;0.40;;;23.70;51.60;;;;;;6265640;28;20422;-69
2021/06/16 02:52:29;;;;;;;0.70;0.55;;;23.70;51.60;;;;;;6259338;28;20816;-69
2021/06/16 02:55:31;;;;;;;0.40;0.40;;;23.70;51.70;;;;;;6222743;28;20036;-69
2021/06/16 02:58:34;;;;;;;0.82;0.50;;;23.70;51.70;;;;;;6265460;28;20646;-70
2021/06/16 03:01:35;;;;;;;0.65;0.40;;;23.70;51.70;;;;;;6264903;28;20438;-69
2021/06/16 03:04:36;;;;;;;0.52;0.50;;;23.70;51.70;;;;;;6248646;28;20025;-70
2021/06/16 03:07:38;;;;;;;0.73;0.60;;;23.70;51.60;;;;;;6240410;28;20076;-69
2021/06/16 03:10:40;;;;;;;0.60;0.45;;;23.70;51.70;;;;;;6241019;28;20041;-70
2021/06/16 03:13:43;;;;;;;0.50;0.50;;;23.70;51.70;;;;;;6265171;28;20457;-70
2021/06/16 03:16:44;;;;;;;1.13;0.50;;;23.70;51.70;;;;;;6264127;28;20507;-70
2021/06/16 03:19:46;;;;;;;0.85;0.60;;;23.70;51.70;;;;;;6264979;28;20087;-70
2021/06/16 03:22:48;;;;;;;0.98;0.40;;;23.70;51.70;;;;;;6264294;28;20027;-70
2021/06/16 03:25:50;;;;;;;1.02;0.50;;;23.70;51.70;;;;;;6264823;28;20110;-69
2021/06/16 03:28:52;;;;;;;0.50;0.40;;;23.70;51.70;;;;;;6264525;28;20097;-69
2021/06/16 03:31:55;;;;;;;0.50;0.38;;;23.70;51.70;;;;;;6264128;28;20041;-70
2021/06/16 03:34:56;;;;;;;0.40;0.30;;;23.70;51.70;;;;;;6264742;28;20025;-69
2021/06/16 03:38:00;;;;;;;0.60;0.60;;;23.70;51.70;;;;;;6264354;28;20432;-70
2021/06/16 03:41:01;;;;;;;0.45;0.35;;;23.70;51.70;;;;;;6264511;28;20388;-69
2021/06/16 03:44:04;;;;;;;0.57;0.57;;;23.70;51.70;;;;;;6264870;28;20245;-69
2021/06/16 03:47:06;;;;;;;0.30;0.30;;;23.70;51.70;;;;;;6264177;28;20554;-69
2021/06/16 03:50:09;;;;;;;0.95;0.50;;;23.70;51.70;;;;;;6264269;28;20036;-70
2021/06/16 03:53:11;;;;;;;0.50;0.50;;;23.70;51.70;;;;;;6246697;28;20022;-70
2021/06/16 03:56:12;;;;;;;0.45;0.45;;;23.70;51.80;;;;;;6225173;28;20531;-70
2021/06/16 04:03:12;;;;;;;0.40;0.40;;;23.70;51.70;;;;;;6258930;28;20017;-70
2021/06/16 04:06:14;;;;;;;0.52;0.45;;;23.70;51.70;;;;;;6239636;28;20021;-70
2021/06/16 04:09:15;;;;;;;0.88;0.60;;;23.70;51.70;;;;;;6261733;28;20021;-70
2021/06/16 04:12:17;;;;;;;0.90;0.70;;;23.70;51.70;;;;;;6264208;28;20017;-70
2021/06/16 04:15:18;;;;;;;1.02;0.60;;;23.70;51.70;;;;;;6263684;28;20463;-70
2021/06/16 04:18:18;;;;;;;0.30;0.30;;;23.70;51.70;;;;;;6264016;28;20143;-69
2021/06/16 04:21:21;;;;;;;0.88;0.65;;;23.70;51.70;;;;;;6264438;28;20025;-69
2021/06/16 04:24:21;;;;;;;0.50;0.50;;;23.70;51.70;;;;;;6264646;28;20029;-70
2021/06/16 04:27:22;;;;;;;0.43;0.43;;;23.70;51.70;;;;;;6263712;28;20353;-70
2021/06/16 04:30:25;;;;;;;0.60;0.50;;;23.70;51.70;;;;;;6264086;28;20039;-70
2021/06/16 04:33:27;;;;;;;0.60;0.43;;;23.70;51.70;;;;;;6263653;28;20029;-69
2021/06/16 04:36:27;;;;;;;0.98;0.60;;;23.70;51.80;;;;;;6264174;28;20099;-69
2021/06/16 04:39:28;;;;;;;0.93;0.70;;;23.70;51.80;;;;;;6263547;28;20013;-69
2021/06/16 04:42:28;;;;;;;0.82;0.55;;;23.70;51.80;;;;;;6259874;28;20037;-70
2021/06/16 04:45:29;;;;;;;0.50;0.45;;;23.70;51.70;;;;;;6263917;28;20053;-70
2021/06/16 04:48:29;;;;;;;1.05;0.73;;;23.70;51.80;;;;;;6263396;28;20104;-70
2021/06/16 04:51:30;;;;;;;1.15;0.70;;;23.70;51.80;;;;;;6263661;28;20499;-70
2021/06/16 04:54:30;;;;;;;0.60;0.50;;;23.70;51.80;;;;;;6261228;28;20067;-70
2021/06/16 04:57:31;;;;;;;0.85;0.50;;;23.70;52.50;;;;;;6263351;28;20308;-69
2021/06/16 05:00:32;;;;;;;0.43;0.43;;;23.70;51.80;;;;;;6263334;28;20028;-70
2021/06/16 05:03:32;;;;;;;0.82;0.70;;;23.70;51.80;;;;;;6226170;28;20022;-70
2021/06/16 05:06:33;;;;;;;0.50;0.50;;;23.70;51.80;;;;;;6238591;28;20120;-69
2021/06/16 05:09:33;;;;;;;0.85;0.57;;;23.70;51.80;;;;;;6254452;28;20104;-69
2021/06/16 05:12:34;;;;;;;0.77;0.52;;;23.70;51.80;;;;;;6263136;28;20111;-69
2021/06/16 05:15:35;;;;;;;0.77;0.50;;;23.70;51.80;;;;;;6262906;28;20084;-69
2021/06/16 05:18:36;;;;;;;1.35;0.60;;;23.70;52.00;;;;;;6258464;28;20352;-70
2021/06/16 05:21:36;;;;;;;1.00;0.60;;;23.70;51.80;;;;;;6263189;28;20490;-70
2021/06/16 05:24:37;;;;;;;0.82;0.60;;;23.70;51.80;;;;;;6263111;28;20017;-70
2021/06/16 05:27:39;;;;;;;0.80;0.60;;;23.70;51.80;;;;;;6263475;28;20404;-69
2021/06/16 05:30:39;;;;;;;0.60;0.60;;;23.70;51.80;;;;;;6262801;28;20032;-69
2021/06/16 05:33:40;;;;;;;0.85;0.57;;;23.70;51.80;;;;;;6263042;28;20091;-70
2021/06/16 05:36:40;;;;;;;0.52;0.40;;;23.70;51.90;;;;;;6263637;28;20017;-70
2021/06/16 05:39:41;;;;;;;0.98;0.70;;;23.70;51.80;;;;;;6265548;28;20503;-70
2021/06/16 05:42:42;;;;;;;0.85;0.60;;;23.70;51.80;;;;;;6267550;28;20044;-69
2021/06/16 05:45:43;;;;;;;0.60;0.50;;;23.70;51.80;;;;;;6267409;28;20027;-70
2021/06/16 05:48:43;;;;;;;0.60;0.60;;;23.70;51.80;;;;;;6267079;28;20036;-70
2021/06/16 05:51:44;;;;;;;0.55;0.47;;;23.70;51.90;;;;;;6266949;28;20110;-69
2021/06/16 05:54:44;;;;;;;0.55;0.55;;;23.70;51.80;;;;;;6244960;28;20669;-69
2021/06/16 05:57:45;;;;;;;0.95;0.70;;;23.70;51.90;;;;;;6267411;28;20246;-70
2021/06/16 06:00:45;;;;;;;0.82;0.50;;;23.70;51.80;;;;;;6245835;28;20494;-69
2021/06/16 06:03:46;;;;;;;0.50;0.50;;;23.70;51.80;;;;;;6244948;28;20021;-69
2021/06/16 06:06:46;;;;;;;0.75;0.68;;;23.60;51.80;;;;;;6244737;28;20060;-70
2021/06/16 06:09:47;;;;;;;0.95;0.68;;;23.70;51.90;;;;;;6222154;28;20033;-70
2021/06/16 06:12:47;;;;;;;0.60;0.60;;;23.60;51.90;;;;;;6241664;28;20021;-69
2021/06/16 06:15:48;;;;;;;8.27;1.20;;;23.60;52.10;;;;;;6250954;28;20057;-70
2021/06/16 06:18:48;;;;;;;3.65;0.60;;;23.60;50.10;;;;;;6242381;28;20535;-69
2021/06/16 06:21:49;;;;;;;1.42;0.73;;;23.60;49.80;;;;;;6263947;28;20091;-70
2021/06/16 06:24:50;;;;;;;1.27;1.10;;;23.50;50.40;;;;;;6268189;28;20029;-70
2021/06/16 06:27:50;;;;;;;2.45;0.80;;;23.50;51.20;;;;;;6248174;28;20080;-69
2021/06/16 06:30:51;;;;;;;2.15;0.80;;;23.50;48.70;;;;;;6254509;28;20540;-70
2021/06/16 06:33:52;;;;;;;9.85;1.25;;;23.50;49.30;;;;;;6268512;28;20600;-70
2021/06/16 06:36:52;;;;;;;4.05;0.80;;;23.40;48.90;;;;;;6267390;28;20029;-69
2021/06/16 06:39:53;;;;;;;7.25;1.27;;;23.40;49.60;;;;;;6267672;28;20108;-70
2021/06/16 06:42:53;;;;;;;4.07;0.70;;;23.50;45.60;;;;;;6266759;28;20549;-69
2021/06/16 06:45:54;;;;;;;2.38;1.10;;;23.40;49.00;;;;;;6267610;28;20112;-70
2021/06/16 06:48:54;;;;;;;3.88;1.40;;;23.40;49.00;;;;;;6267685;28;20025;-69
2021/06/16 06:51:55;;;;;;;4.10;1.15;;;23.40;47.90;;;;;;6265990;28;20037;-70
2021/06/16 06:54:57;;;;;;;5.30;1.00;;;23.40;46.80;;;;;;6238943;28;20025;-69
2021/06/16 06:57:58;;;;;;;6.05;1.65;;;23.40;48.10;;;;;;6264253;28;20028;-70
2021/06/16 07:00:58;;;;;;;8.15;1.27;;;23.40;46.90;;;;;;6253721;28;20106;-70
2021/06/16 07:04:01;;;;;;;5.18;1.27;;;23.40;47.30;;;;;;6255698;28;20022;-69
2021/06/16 07:07:02;;;;;;;3.83;1.05;;;23.30;47.40;;;;;;6254662;28;20029;-70
2021/06/16 07:10:03;;;;;;;6.45;1.63;;;23.40;45.80;;;;;;6266459;28;20025;-69
2021/06/16 07:13:04;;;;;;;8.13;1.55;;;23.40;46.30;;;;;;6266524;28;20091;-69
2021/06/16 07:16:04;;;;;;;4.40;1.48;;;23.40;45.40;;;;;;6261669;28;20021;-69
2021/06/16 07:19:05;;;;;;;6.30;1.60;;;23.40;45.40;;;;;;6267296;28;20108;-70
2021/06/16 07:22:06;;;;;;;4.53;1.40;;;23.40;45.30;;;;;;6266348;28;20025;-69
2021/06/16 07:25:07;;;;;;;8.68;1.40;;;23.40;45.10;;;;;;6267324;28;20479;-70
2021/06/16 07:28:08;;;;;;;5.28;1.40;;;23.40;45.40;;;;;;6266830;28;20021;-69
2021/06/16 07:31:09;;;;;;;5.97;1.55;;;23.40;45.90;;;;;;6248755;28;20025;-69
2021/06/16 07:34:09;;;;;;;5.72;1.85;;;23.30;46.50;;;;;;6266115;28;20108;-69
2021/06/16 07:37:10;;;;;;;4.32;1.58;;;23.30;45.60;;;;;;6249496;28;20125;-70
2021/06/16 07:40:11;;;;;;;5.45;1.55;;;23.30;45.20;;;;;;6241781;28;20025;-70
2021/06/16 07:43:11;;;;;;;6.93;1.45;;;23.30;45.30;;;;;;6260837;28;20021;-69
2021/06/16 07:46:12;;;;;;;4.45;1.50;;;23.40;45.40;;;;;;6266114;28;20146;-70
2021/06/16 07:49:13;;;;;;;6.60;1.25;;;23.40;45.60;;;;;;6253138;28;20033;-70
2021/06/16 07:52:14;;;;;;;11.75;1.30;;;23.40;46.40;;;;;;6249399;28;20444;-70
2021/06/16 07:55:16;;;;;;;7.68;1.73;;;23.40;45.30;;;;;;6217255;28;20162;-70
2021/06/16 07:58:16;;;;;;;7.65;1.52;;;23.40;44.10;;;;;;6253472;28;20403;-71
2021/06/16 08:01:19;;;;;;;9.60;1.83;;;23.40;45.60;;;;;;6265748;28;20025;-69
2021/06/16 08:04:23;;;;;;;5.65;1.30;;;23.50;46.70;;;;;;6250258;28;20037;-69
2021/06/16 08:07:23;;;;;;;4.15;1.58;;;23.50;46.60;;;;;;6250624;28;20029;-69
2021/06/16 08:10:24;;;;;;;6.63;1.38;;;23.50;46.60;;;;;;6266090;28;20399;-69
2021/06/16 08:13:24;;;;;;;6.63;1.20;;;23.50;46.70;;;;;;6265346;28;20053;-69
2021/06/16 08:16:25;;;;;;;9.48;1.50;;;23.50;47.10;;;;;;6248480;28;20088;-68
2021/06/16 08:19:26;;;;;;;3.05;1.27;;;23.60;46.90;;;;;;6266361;28;20025;-69
2021/06/16 08:22:27;;;;;;;9.60;1.25;;;23.50;46.80;;;;;;6257230;28;20031;-69
2021/06/16 08:25:27;;;;;;;9.45;1.25;;;23.50;49.10;;;;;;6263526;28;20025;-69
2021/06/16 08:28:28;;;;;;;5.85;1.15;;;23.60;50.10;;;;;;6257100;28;20025;-69
2021/06/16 08:31:29;;;;;;;3.45;1.20;;;23.60;48.20;;;;;;6266492;28;20032;-69
2021/06/16 08:34:30;;;;;;;3.45;1.23;;;23.60;48.20;;;;;;6266198;28;20028;-69
2021/06/16 08:37:30;;;;;;;3.80;1.70;;;23.60;48.30;;;;;;6266169;28;20075;-69
2021/06/16 08:40:32;;;;;;;7.05;1.52;;;23.60;48.20;;;;;;6266960;28;20037;-69
2021/06/16 08:43:38;;;;;;;3.03;1.00;;;23.50;48.30;;;;;;6266837;28;20090;-69
2021/06/16 08:46:39;;;;;;;3.22;1.02;;;23.60;48.50;;;;;;6266220;28;20431;-69
2021/06/16 08:49:39;;;;;;;4.85;1.30;;;23.50;48.50;;;;;;6266082;28;20033;-69
2021/06/16 08:52:40;;;;;;;3.05;1.10;;;23.60;48.50;;;;;;6257219;28;20248;-69
2021/06/16 08:55:41;;;;;;;8.80;1.23;;;23.60;49.30;;;;;;6217109;28;20034;-69
2021/06/16 08:58:42;;;;;;;5.13;1.35;;;23.60;48.70;;;;;;6243452;28;20361;-69
2021/06/16 09:01:43;;;;;;;4.05;1.50;;;23.60;48.70;;;;;;6265607;28;20060;-69
2021/06/16 09:04:52;;;;;;;4.40;1.20;;;23.60;48.80;;;;;;6248469;28;20717;-69
2021/06/16 09:07:53;;;;;;;2.47;0.95;;;23.50;48.80;;;;;;6243265;28;20037;-69
2021/06/16 09:10:54;;;;;;;2.33;1.05;;;23.60;49.00;;;;;;6238168;28;20099;-69
2021/06/16 09:14:16;;;;;;;2.42;1.10;;;23.60;49.70;;;;;;6254089;28;20052;-69
2021/06/16 09:17:22;;;;;;;1.95;1.00;;;23.50;49.00;;;;;;6270833;28;20098;-69
2021/06/16 09:20:24;;;;;;;2.70;0.98;;;23.50;49.10;;;;;;6270239;28;20025;-69
2021/06/16 09:23:29;;;;;;;3.00;0.80;;;23.60;49.20;;;;;;6270120;28;20033;-69
2021/06/16 09:26:31;;;;;;;2.22;0.85;;;23.50;49.20;;;;;;6271394;28;20025;-69
2021/06/16 09:29:32;;;;;;;2.05;1.02;;;23.60;49.20;;;;;;6270215;28;20040;-69
2021/06/16 09:32:45;;;;;;;2.30;0.95;;;23.60;49.30;;;;;;6270200;28;20499;-69
2021/06/16 09:35:49;;;;;;;1.38;0.80;;;23.50;49.30;;;;;;6270569;28;20033;-69
2021/06/16 09:38:51;;;;;;;3.78;0.90;;;23.50;49.40;;;;;;6270252;28;20108;-69
2021/06/16 09:41:56;;;;;;;1.27;0.80;;;23.50;49.40;;;;;;6270824;28;20029;-69
2021/06/16 09:45:00;;;;;;;1.63;0.70;;;23.50;49.50;;;;;;6269946;28;20023;-69
2021/06/16 09:48:23;;;;;;;2.63;1.02;;;23.50;49.50;;;;;;6269989;28;20472;-69
2021/06/16 09:51:28;;;;;;;2.83;1.10;;;23.50;49.50;;;;;;6270175;28;20035;-69
2021/06/16 09:54:38;;;;;;;6.18;0.82;;;23.60;49.70;;;;;;6252014;28;20024;-69
2021/06/16 09:57:59;;;;;;;0.93;0.70;;;23.50;49.60;;;;;;6270526;28;20029;-69
2021/06/16 10:01:01;;;;;;;3.15;0.85;;;23.50;49.60;;;;;;6269675;28;20021;-68
2021/06/16 10:04:01;;;;;;;0.95;0.70;;;23.60;49.70;;;;;;6262906;28;20048;-69
2021/06/16 10:07:14;;;;;;;1.75;0.70;;;23.50;49.70;;;;;;6270146;28;20021;-69
2021/06/16 10:10:16;;;;;;;1.98;0.70;;;23.50;49.80;;;;;;6269390;28;20488;-69
2021/06/16 10:13:21;;;;;;;2.30;1.05;;;23.50;49.80;;;;;;6269314;28;20103;-68
2021/06/16 10:16:22;;;;;;;0.73;0.60;;;23.50;49.80;;;;;;6269480;28;20021;-69
2021/06/16 10:19:23;;;;;;;1.55;0.85;;;23.50;49.80;;;;;;6269707;28;20117;-69
2021/06/16 10:22:24;;;;;;;3.70;0.60;;;23.50;49.80;;;;;;6269222;28;20036;-69
2021/06/16 10:25:24;;;;;;;1.33;0.75;;;23.60;49.90;;;;;;6267944;28;20029;-69
2021/06/16 10:28:30;;;;;;;1.92;0.68;;;23.60;49.90;;;;;;6269657;28;20067;-69
2021/06/16 10:31:36;;;;;;;1.20;0.50;;;23.50;49.90;;;;;;6268812;28;20550;-69
2021/06/16 10:34:51;;;;;;;1.63;0.95;;;23.50;49.90;;;;;;6269079;28;20114;-69
2021/06/16 10:38:13;;;;;;;1.13;0.60;;;23.50;50.00;;;;;;6268776;28;20021;-69
2021/06/16 10:41:13;;;;;;;1.30;0.70;;;23.60;50.10;;;;;;6268385;28;20017;-69
2021/06/16 10:44:21;;;;;;;0.93;0.70;;;23.60;50.00;;;;;;6268785;28;20033;-69
2021/06/16 10:47:21;;;;;;;1.10;0.65;;;23.50;50.00;;;;;;6268986;28;20025;-69
2021/06/16 10:50:45;;;;;;;1.20;0.90;;;23.50;50.00;;;;;;6268672;28;20033;-68
2021/06/16 10:54:14;;;;;;;0.95;0.75;;;23.50;50.00;;;;;;6241686;28;20036;-69
2021/06/16 10:57:15;;;;;;;1.13;0.75;;;23.50;50.10;;;;;;6219296;28;20030;-69
2021/06/16 11:00:24;;;;;;;0.70;0.70;;;23.50;50.10;;;;;;6234331;28;20048;-69
2021/06/16 11:03:25;;;;;;;0.75;0.50;;;23.50;50.00;;;;;;6261036;28;20555;-68
2021/06/16 11:06:37;;;;;;;1.00;0.60;;;23.60;50.20;;;;;;6259887;28;20245;-69
2021/06/16 11:10:07;;;;;;;0.80;0.70;;;23.60;50.20;;;;;;6267935;28;20028;-68
2021/06/16 11:13:08;;;;;;;0.88;0.68;;;23.60;50.20;;;;;;6246454;28;20052;-69
2021/06/16 11:16:40;;;;;;;1.08;0.60;;;23.60;50.20;;;;;;6267208;28;20491;-69
2021/06/16 11:19:42;;;;;;;2.03;0.80;;;23.60;50.20;;;;;;6267479;28;20166;-69
2021/06/16 11:22:48;;;;;;;0.77;0.57;;;23.60;50.20;;;;;;6267111;28;20033;-68
2021/06/16 11:25:50;;;;;;;0.93;0.70;;;23.60;50.20;;;;;;6267467;28;20461;-69
2021/06/16 11:28:51;;;;;;;0.98;0.60;;;23.60;50.30;;;;;;6266795;28;20029;-70
2021/06/16 11:32:13;;;;;;;1.23;0.57;;;23.60;50.30;;;;;;6266526;28;20033;-69
2021/06/16 11:35:37;;;;;;;1.48;0.60;;;23.60;50.30;;;;;;6266373;28;20021;-69
2021/06/16 11:38:52;;;;;;;1.92;0.50;;;23.60;50.30;;;;;;6247320;28;20040;-69
2021/06/16 11:41:53;;;;;;;0.40;0.40;;;23.60;50.30;;;;;;6237610;28;20029;-69
2021/06/16 11:44:53;;;;;;;2.10;0.70;;;23.60;50.30;;;;;;6266942;28;20283;-69
2021/06/16 11:47:57;;;;;;;1.17;0.70;;;23.60;50.40;;;;;;6266278;28;20032;-69
2021/06/16 11:50:57;;;;;;;0.75;0.70;;;23.50;50.30;;;;;;6266771;28;20444;-69
2021/06/16 11:54:04;;;;;;;2.15;0.70;;;23.60;50.40;;;;;;6236287;28;20030;-69
2021/06/16 11:57:10;;;;;;;0.55;0.55;;;23.60;50.50;;;;;;6244316;28;20443;-69
2021/06/16 12:00:12;;;;;;;0.75;0.60;;;23.50;50.40;;;;;;6263980;28;20021;-69
2021/06/16 12:03:16;;;;;;;0.70;0.60;;;23.60;50.50;;;;;;6261273;28;20026;-69
2021/06/16 12:06:17;;;;;;;0.37;0.37;;;23.60;50.40;;;;;;6247390;28;20494;-69
2021/06/16 12:09:17;;;;;;;1.02;0.60;;;23.50;50.40;;;;;;6266804;28;20361;-69
2021/06/16 12:12:18;;;;;;;0.85;0.50;;;23.60;50.50;;;;;;6261662;28;20542;-69
2021/06/16 12:15:22;;;;;;;0.52;0.52;;;23.50;50.40;;;;;;6242142;28;20073;-69
2021/06/16 12:18:23;;;;;;;0.88;0.70;;;23.50;50.40;;;;;;6260434;28;20108;-69
2021/06/16 12:21:23;;;;;;;0.88;0.70;;;23.50;50.50;;;;;;6266061;28;20395;-70
2021/06/16 12:24:34;;;;;;;0.50;0.50;;;23.60;50.60;;;;;;6266866;28;20033;-69
2021/06/16 12:27:35;;;;;;;0.75;0.60;;;23.50;50.50;;;;;;6267824;28;20036;-69
2021/06/16 12:30:37;;;;;;;0.95;0.60;;;23.60;50.60;;;;;;6265740;28;20512;-69
2021/06/16 12:34:01;;;;;;;0.57;0.50;;;23.60;50.60;;;;;;6266063;28;20349;-69
2021/06/16 12:37:13;;;;;;;0.73;0.50;;;23.60;50.60;;;;;;6266236;28;20112;-68
2021/06/16 12:40:14;;;;;;;0.90;0.63;;;23.60;50.60;;;;;;6265625;28;20052;-69
2021/06/16 12:43:23;;;;;;;0.95;0.60;;;23.50;50.50;;;;;;6265710;28;20036;-69
2021/06/16 12:46:23;;;;;;;0.82;0.55;;;23.60;50.60;;;;;;6266468;28;20056;-69
2021/06/16 12:49:32;;;;;;;1.10;0.50;;;23.60;50.60;;;;;;6268416;28;20032;-69
2021/06/16 12:52:36;;;;;;;0.85;0.60;;;23.50;50.50;;;;;;6263762;28;20176;-69
2021/06/16 12:55:43;;;;;;;1.52;0.50;;;23.50;50.60;;;;;;6221767;28;20109;-69
2021/06/16 12:58:47;;;;;;;0.65;0.40;;;23.50;50.60;;;;;;6252692;28;20029;-68
2021/06/16 13:01:57;;;;;;;0.93;0.50;;;23.50;50.50;;;;;;6270271;28;20021;-69
2021/06/16 13:05:00;;;;;;;0.82;0.60;;;23.60;50.70;;;;;;6251241;28;20030;-69
2021/06/16 13:08:02;;;;;;;1.33;0.60;;;23.50;50.60;;;;;;6253113;28;20670;-69
2021/06/16 13:11:29;;;;;;;0.80;0.55;;;23.60;50.70;;;;;;6270197;28;20033;-69
2021/06/16 13:14:32;;;;;;;1.23;0.57;;;23.50;50.60;;;;;;6270597;28;20575;-69
2021/06/16 13:17:49;;;;;;;0.65;0.40;;;23.60;50.70;;;;;;6270483;28;20456;-69
2021/06/16 13:20:59;;;;;;;0.57;0.50;;;23.60;50.70;;;;;;6270246;28;20025;-69
2021/06/16 13:24:07;;;;;;;0.73;0.70;;;23.50;50.60;;;;;;6270317;28;20550;-69
2021/06/16 13:27:07;;;;;;;1.23;0.65;;;23.60;50.70;;;;;;6271131;28;20025;-69
2021/06/16 13:30:09;;;;;;;0.77;0.52;;;23.60;50.70;;;;;;6269927;28;20498;-69
2021/06/16 13:33:12;;;;;;;0.70;0.45;;;23.50;50.70;;;;;;6269513;28;20100;-69
2021/06/16 13:36:15;;;;;;;0.73;0.50;;;23.50;50.70;;;;;;6269844;28;20064;-69
2021/06/16 13:39:15;;;;;;;0.40;0.40;;;23.60;50.70;;;;;;6269710;28;20029;-69
2021/06/16 13:42:19;;;;;;;0.65;0.63;;;23.50;50.70;;;;;;6269459;28;20086;-69
2021/06/16 13:45:21;;;;;;;0.90;0.50;;;23.60;50.80;;;;;;6269829;28;20029;-68
2021/06/16 13:48:22;;;;;;;0.77;0.50;;;23.50;50.70;;;;;;6270031;28;20024;-69
2021/06/16 13:51:23;;;;;;;0.35;0.35;;;23.50;50.70;;;;;;6269585;28;20045;-69
2021/06/16 13:54:23;;;;;;;0.50;0.43;;;23.50;50.70;;;;;;6255444;28;20079;-69
2021/06/16 13:57:23;;;;;;;0.55;0.38;;;23.50;50.70;;;;;;6269566;28;20033;-69
2021/06/16 14:00:24;;;;;;;0.38;0.38;;;23.50;50.80;;;;;;6250981;28;20116;-69
2021/06/16 14:03:27;;;;;;;0.52;0.50;;;23.60;50.80;;;;;;6264426;28;20421;-68
2021/06/16 14:06:27;;;;;;;0.45;0.40;;;23.50;50.80;;;;;;6269274;28;20556;-69
2021/06/16 14:09:28;;;;;;;0.68;0.40;;;23.50;50.80;;;;;;6269575;28;20033;-69
2021/06/16 14:12:28;;;;;;;0.45;0.45;;;23.60;50.90;;;;;;6269163;28;20051;-69
2021/06/16 14:15:30;;;;;;;0.80;0.50;;;23.60;50.90;;;;;;6268782;28;20425;-69
2021/06/16 14:18:31;;;;;;;0.43;0.43;;;23.50;50.90;;;;;;6269589;28;20333;-69
2021/06/16 14:21:31;;;;;;;0.65;0.50;;;23.50;50.80;;;;;;6269218;28;20033;-69
2021/06/16 14:24:33;;;;;;;0.52;0.50;;;23.50;50.90;;;;;;6268590;28;20068;-69
2021/06/16 14:27:33;;;;;;;1.55;0.70;;;23.50;50.80;;;;;;6269236;28;20025;-69
2021/06/16 14:30:35;;;;;;;0.50;0.38;;;23.60;50.90;;;;;;6268526;28;20168;-69
2021/06/16 14:33:35;;;;;;;0.50;0.50;;;23.50;50.80;;;;;;6268243;28;20037;-69
2021/06/16 14:36:36;;;;;;;0.70;0.47;;;23.50;50.90;;;;;;6268779;28;20032;-69
2021/06/16 14:39:36;;;;;;;0.30;0.30;;;23.50;50.90;;;;;;6268739;28;20036;-69
2021/06/16 14:42:37;;;;;;;0.65;0.45;;;23.50;50.90;;;;;;6268176;28;20037;-69
2021/06/16 14:45:38;;;;;;;0.68;0.50;;;23.50;50.90;;;;;;6268766;28;20028;-69
2021/06/16 14:48:39;;;;;;;0.47;0.45;;;23.50;50.90;;;;;;6250696;28;20440;-69
2021/06/16 14:51:39;;;;;;;1.23;0.40;;;23.50;50.90;;;;;;6268083;28;20160;-69
2021/06/16 14:54:41;;;;;;;0.70;0.40;;;23.60;50.90;;;;;;6236812;28;20554;-68
2021/06/16 14:57:43;;;;;;;0.77;0.47;;;23.50;50.90;;;;;;6268143;28;20104;-69
2021/06/16 15:00:44;;;;;;;1.27;0.40;;;23.50;50.90;;;;;;6267867;28;20087;-69
2021/06/16 15:03:48;;;;;;;0.30;0.30;;;23.50;50.90;;;;;;6258385;28;20520;-69
2021/06/16 15:06:50;;;;;;;0.50;0.40;;;23.50;50.90;;;;;;6243123;28;20025;-69
2021/06/16 15:09:51;;;;;;;0.50;0.32;;;23.60;51.00;;;;;;6243583;28;20036;-69
2021/06/16 15:12:51;;;;;;;0.40;0.40;;;23.50;50.90;;;;;;6267150;28;20021;-69
2021/06/16 15:15:52;;;;;;;0.40;0.40;;;23.50;50.90;;;;;;6267700;28;20036;-69
2021/06/16 15:18:52;;;;;;;0.40;0.40;;;23.50;50.90;;;;;;6267983;28;20043;-69
2021/06/16 15:21:53;;;;;;;0.47;0.40;;;23.50;51.00;;;;;;6267423;28;20028;-70
2021/06/16 15:24:56;;;;;;;0.77;0.38;;;23.50;51.00;;;;;;6267460;28;20451;-69
2021/06/16 15:27:57;;;;;;;0.57;0.50;;;23.50;51.00;;;;;;6267734;28;20394;-69
2021/06/16 15:30:57;;;;;;;0.68;0.57;;;23.50;50.90;;;;;;6267013;28;20037;-69
2021/06/16 15:33:58;;;;;;;0.50;0.43;;;23.50;51.00;;;;;;6267834;28;20554;-69
2021/06/16 15:36:59;;;;;;;0.40;0.40;;;23.50;51.00;;;;;;6267192;28;20075;-69
2021/06/16 15:40:01;;;;;;;0.43;0.30;;;23.50;51.00;;;;;;6264529;28;20060;-69
2021/06/16 15:43:03;;;;;;;0.50;0.50;;;23.50;51.00;;;;;;6264637;28;20024;-69
2021/06/16 15:46:04;;;;;;;0.73;0.40;;;23.50;51.00;;;;;;6267344;28;20383;-69
2021/06/16 15:49:05;;;;;;;0.40;0.40;;;23.50;51.00;;;;;;6246728;28;20056;-69
2021/06/16 15:52:05;;;;;;;0.38;0.38;;;23.50;51.10;;;;;;6256192;28;20044;-69
2021/06/16 15:55:07;;;;;;;0.38;0.38;;;23.50;51.00;;;;;;6218356;28;20389;-68
2021/06/16 15:58:07;;;;;;;0.40;0.40;;;23.50;51.00;;;;;;6224670;28;20018;-69